Decatur, Ohio
Current Conditions -  °F | °C
As of 12:55 PM on Monday 24 Nov 2014 (Local Time) from KFGX Reporting Station
Overcast Overcast  
Wind Chill: 56°   Ceiling: 4800
Heat Index: 56°   Visibility: 10mi
Dew Point: 46°   Wind: 25mph
Humidity: 69%   Direction: 260°W
Pressure: 29.59"   Gusts: 39mph
Location:  38.82°N, 83.7°W
Report Text: KFGX 241755Z AUTO 26022G34KT 10SM SCT038 BKN048 OVC060 14/08 A2959 RMK AO2 T01360080 10178 20125
Loading
Personal Weather Stations






























Interactive Weather Map New forecast layout! Learn more

10-Day Weather Forecast

Advertisements
Track Severe Weather on mobile